Time;durP1;ratioP1;P1;durP2;ratioP2;P2;SDS_P1;SDS_P2;PMS_P1;PMS_P2;Temp;Humidity;BMP_temperature;BMP_pressure;BME280_temperature;BME280_humidity;BME280_pressure;Samples;Min_cycle;Max_cycle;Signal;HPM_P1;HPM_P2
2023/09/16 03:31:03;;;;;;;7.30;5.90;;;14.60;99.90;;;;;;5998075;22;21234;-65
2023/09/16 03:33:29;;;;;;;9.17;7.20;;;14.60;99.90;;;;;;5017342;28;20489;-65
2023/09/16 03:35:56;;;;;;;7.60;6.40;;;14.60;99.90;;;;;;5012549;28;20455;-66
2023/09/16 03:38:26;;;;;;;10.27;7.83;;;14.60;99.90;;;;;;5012782;28;20457;-65
2023/09/16 03:40:53;;;;;;;8.80;6.80;;;14.60;99.90;;;;;;5006717;28;20486;-66
2023/09/16 03:43:22;;;;;;;9.53;7.43;;;14.50;99.90;;;;;;4992592;28;20460;-66
2023/09/16 03:45:49;;;;;;;8.20;6.20;;;14.50;99.90;;;;;;4991773;28;20471;-66
2023/09/16 03:48:17;;;;;;;8.87;7.00;;;14.50;99.90;;;;;;4991539;28;20462;-65
2023/09/16 03:50:46;;;;;;;8.17;5.87;;;14.50;99.90;;;;;;5007206;28;20553;-66
2023/09/16 03:53:12;;;;;;;10.47;6.80;;;14.50;99.90;;;;;;5004321;28;20476;-65
2023/09/16 03:55:39;;;;;;;8.30;7.20;;;14.50;99.90;;;;;;4994957;28;20470;-66
2023/09/16 03:58:06;;;;;;;8.47;6.93;;;14.50;99.90;;;;;;4992674;28;20466;-66
2023/09/16 04:00:33;;;;;;;7.77;6.97;;;14.50;99.90;;;;;;4999144;28;20489;-66
2023/09/16 04:02:59;;;;;;;7.60;5.93;;;14.50;99.90;;;;;;4999991;28;20466;-66
2023/09/16 04:05:28;;;;;;;9.13;7.03;;;14.50;99.90;;;;;;4992556;28;20485;-65
2023/09/16 04:07:54;;;;;;;8.10;6.57;;;14.50;99.90;;;;;;4992529;28;20474;-65
2023/09/16 04:10:21;;;;;;;6.93;6.10;;;14.50;99.90;;;;;;5005531;28;20465;-65
2023/09/16 04:12:48;;;;;;;8.03;6.77;;;14.40;99.90;;;;;;4993380;28;20463;-65
2023/09/16 04:15:15;;;;;;;8.17;6.50;;;14.40;99.90;;;;;;5004730;28;20458;-65
2023/09/16 04:17:42;;;;;;;7.30;5.87;;;14.40;99.90;;;;;;4994498;28;20467;-65
2023/09/16 04:20:09;;;;;;;9.37;6.70;;;14.30;99.90;;;;;;5003982;28;20481;-66
2023/09/16 04:22:37;;;;;;;9.33;7.63;;;14.30;99.90;;;;;;4994547;28;20486;-65
2023/09/16 04:25:05;;;;;;;8.30;6.83;;;14.30;99.90;;;;;;5007280;28;20462;-66
2023/09/16 04:27:31;;;;;;;7.87;7.00;;;14.30;99.90;;;;;;4992000;28;20467;-66
2023/09/16 04:29:58;;;;;;;9.00;7.30;;;14.30;99.90;;;;;;4991905;28;20459;-66
2023/09/16 04:32:25;;;;;;;9.27;7.10;;;14.30;99.90;;;;;;4996969;28;20552;-66
2023/09/16 04:34:52;;;;;;;12.80;7.50;;;14.40;99.90;;;;;;5000921;28;20458;-66
2023/09/16 04:37:19;;;;;;;9.20;6.77;;;14.40;99.90;;;;;;4991649;28;20975;-66
2023/09/16 04:39:47;;;;;;;9.10;7.27;;;14.40;99.90;;;;;;4991617;28;20532;-66
2023/09/16 04:42:13;;;;;;;6.87;6.17;;;14.40;99.90;;;;;;4995476;28;20485;-65
2023/09/16 04:44:40;;;;;;;7.70;6.47;;;14.40;99.90;;;;;;5002500;28;20466;-65
2023/09/16 04:47:10;;;;;;;8.30;7.40;;;14.40;99.90;;;;;;4991840;28;20489;-66
2023/09/16 04:49:37;;;;;;;8.87;8.00;;;14.40;99.90;;;;;;4991688;28;20962;-66
2023/09/16 04:52:04;;;;;;;7.50;6.30;;;14.40;99.90;;;;;;5007116;28;20869;-66
2023/09/16 04:54:32;;;;;;;8.77;6.43;;;14.40;99.90;;;;;;4997830;28;20472;-66
2023/09/16 04:57:05;;;;;;;10.10;7.67;;;14.40;99.90;;;;;;5002330;28;20911;-65
2023/09/16 04:59:32;;;;;;;8.10;6.00;;;14.40;99.90;;;;;;5003940;28;20971;-65
2023/09/16 05:01:59;;;;;;;10.13;7.50;;;14.30;99.90;;;;;;4993208;28;20541;-65
2023/09/16 05:04:26;;;;;;;9.20;7.33;;;14.30;99.90;;;;;;5004278;28;20467;-65
2023/09/16 05:06:53;;;;;;;7.30;6.27;;;14.30;99.90;;;;;;5007075;28;20493;-65
2023/09/16 05:09:22;;;;;;;9.57;7.90;;;14.30;99.90;;;;;;4991352;28;20835;-65
2023/09/16 05:11:48;;;;;;;8.40;5.97;;;14.20;99.90;;;;;;4991635;28;21002;-65
2023/09/16 05:14:17;;;;;;;7.73;6.40;;;14.20;99.90;;;;;;5005668;28;20962;-65
2023/09/16 05:16:44;;;;;;;8.13;6.53;;;14.20;99.90;;;;;;4991409;28;20462;-65
2023/09/16 05:19:10;;;;;;;8.17;6.63;;;14.20;99.90;;;;;;5010477;28;20528;-65
2023/09/16 05:21:38;;;;;;;7.97;6.87;;;14.20;99.90;;;;;;5003038;28;20527;-65
2023/09/16 05:24:05;;;;;;;7.00;6.30;;;14.20;99.90;;;;;;4990543;28;20454;-65
2023/09/16 05:26:32;;;;;;;6.13;5.53;;;14.20;99.90;;;;;;5006209;28;20468;-65
2023/09/16 05:28:59;;;;;;;8.33;6.60;;;14.20;99.90;;;;;;5002215;28;20465;-64
2023/09/16 05:31:27;;;;;;;9.17;6.70;;;14.20;99.90;;;;;;4996445;28;20489;-65
2023/09/16 05:33:54;;;;;;;7.30;6.57;;;14.20;99.90;;;;;;4991944;28;20532;-65
2023/09/16 05:36:21;;;;;;;6.80;5.80;;;14.30;99.90;;;;;;5005826;28;20490;-65
2023/09/16 05:38:48;;;;;;;6.83;5.23;;;14.20;99.90;;;;;;4991414;28;20469;-65
2023/09/16 05:41:15;;;;;;;7.60;5.53;;;14.20;99.90;;;;;;5006259;28;20486;-65
2023/09/16 05:43:41;;;;;;;6.97;6.00;;;14.20;99.90;;;;;;4990834;28;20470;-65
2023/09/16 05:46:08;;;;;;;8.60;6.77;;;14.20;99.90;;;;;;4991153;28;20521;-64
2023/09/16 05:48:36;;;;;;;7.77;6.87;;;14.20;99.90;;;;;;4993672;28;20474;-65
2023/09/16 05:51:04;;;;;;;7.20;6.30;;;14.30;99.90;;;;;;4994683;28;20485;-65
2023/09/16 05:53:32;;;;;;;10.03;7.30;;;14.30;99.90;;;;;;4994387;28;20470;-65
2023/09/16 05:56:02;;;;;;;7.50;6.50;;;14.30;99.90;;;;;;4994693;28;20516;-65
2023/09/16 05:58:29;;;;;;;10.17;7.07;;;14.30;99.90;;;;;;4994783;28;20836;-65
2023/09/16 06:00:56;;;;;;;7.53;6.30;;;14.40;99.90;;;;;;4994611;28;20501;-65
2023/09/16 06:03:23;;;;;;;8.93;6.63;;;14.40;99.90;;;;;;5002452;28;20469;-64
2023/09/16 06:05:57;;;;;;;7.87;6.63;;;14.40;99.90;;;;;;4994417;28;20458;-65
2023/09/16 06:08:24;;;;;;;7.70;6.33;;;14.40;99.90;;;;;;4994507;28;20520;-65
2023/09/16 06:10:50;;;;;;;9.83;6.80;;;14.50;99.90;;;;;;4995395;28;20470;-65
2023/09/16 06:13:17;;;;;;;9.37;7.53;;;14.50;99.90;;;;;;5001106;28;20962;-65
2023/09/16 06:15:44;;;;;;;7.20;6.50;;;14.50;99.90;;;;;;5002645;28;20465;-65
2023/09/16 06:18:11;;;;;;;9.23;6.90;;;14.60;99.90;;;;;;5010817;28;20466;-65
2023/09/16 06:20:39;;;;;;;7.50;6.40;;;14.60;99.90;;;;;;4994319;28;20879;-65
2023/09/16 06:23:07;;;;;;;6.77;5.90;;;14.70;99.90;;;;;;4996690;28;20468;-65
2023/09/16 06:25:34;;;;;;;8.23;7.40;;;14.70;99.90;;;;;;4999312;28;20469;-65
2023/09/16 06:28:03;;;;;;;9.60;7.33;;;14.80;99.90;;;;;;4996584;28;20848;-65
2023/09/16 06:30:30;;;;;;;7.77;6.80;;;14.90;99.90;;;;;;4999868;28;20494;-64
2023/09/16 06:32:58;;;;;;;8.17;7.10;;;14.90;99.90;;;;;;4993485;28;20480;-64
2023/09/16 06:35:25;;;;;;;7.80;6.83;;;15.00;99.90;;;;;;4993983;28;20467;-65
2023/09/16 06:37:52;;;;;;;9.90;6.47;;;15.10;99.90;;;;;;4993954;28;20564;-64
2023/09/16 06:40:20;;;;;;;9.63;7.77;;;15.20;99.90;;;;;;4993951;28;20494;-64
2023/09/16 06:42:47;;;;;;;9.03;8.13;;;15.30;99.90;;;;;;5002161;28;20469;-65
2023/09/16 06:45:14;;;;;;;9.93;8.50;;;15.40;99.90;;;;;;5001532;28;20899;-65
2023/09/16 06:47:41;;;;;;;10.93;8.73;;;15.50;99.90;;;;;;4993950;28;20466;-65
2023/09/16 06:50:09;;;;;;;10.67;8.90;;;15.70;99.90;;;;;;5002667;28;20860;-65
2023/09/16 06:52:36;;;;;;;11.33;9.00;;;15.70;99.90;;;;;;5000269;28;20482;-64
2023/09/16 06:55:03;;;;;;;11.03;9.37;;;15.90;99.90;;;;;;4995216;28;20473;-65
2023/09/16 06:57:31;;;;;;;13.00;9.60;;;16.00;99.90;;;;;;4999378;28;20459;-65
2023/09/16 06:59:58;;;;;;;11.20;8.47;;;16.10;99.90;;;;;;4995812;28;20567;-65
2023/09/16 07:02:25;;;;;;;11.20;9.47;;;16.20;99.90;;;;;;4993015;28;20578;-65
2023/09/16 07:04:52;;;;;;;10.67;9.57;;;16.30;99.90;;;;;;4993543;28;20471;-65
2023/09/16 07:07:20;;;;;;;12.30;9.23;;;16.50;99.90;;;;;;4993855;28;20465;-65
2023/09/16 07:09:46;;;;;;;11.13;9.20;;;16.50;99.90;;;;;;4993615;28;20466;-65
2023/09/16 07:12:13;;;;;;;12.90;8.57;;;16.70;99.90;;;;;;4993014;28;20484;-65
2023/09/16 07:14:41;;;;;;;10.27;8.47;;;16.80;99.90;;;;;;4993534;28;20522;-65
2023/09/16 07:17:08;;;;;;;9.40;8.03;;;17.00;99.90;;;;;;5002577;28;20956;-65
2023/09/16 07:19:35;;;;;;;8.97;8.07;;;17.10;99.90;;;;;;4993377;28;20469;-65
2023/09/16 07:22:02;;;;;;;9.50;8.10;;;17.30;99.90;;;;;;4993222;28;20874;-65
2023/09/16 07:24:28;;;;;;;9.90;7.10;;;17.50;99.90;;;;;;5002087;28;20547;-65
2023/09/16 07:26:55;;;;;;;11.10;9.07;;;17.70;99.90;;;;;;5002486;28;20469;-65
2023/09/16 07:29:22;;;;;;;9.30;7.80;;;17.80;99.90;;;;;;4999560;28;20464;-66
2023/09/16 07:31:51;;;;;;;9.60;8.40;;;17.90;99.90;;;;;;5005754;28;20792;-65
2023/09/16 07:34:19;;;;;;;9.77;8.37;;;18.10;99.90;;;;;;4992598;28;20468;-65
2023/09/16 07:36:46;;;;;;;10.00;8.30;;;18.20;99.90;;;;;;4993186;28;20570;-65
2023/09/16 07:39:13;;;;;;;11.93;9.50;;;18.30;99.90;;;;;;4992919;28;20892;-65
2023/09/16 07:41:40;;;;;;;8.87;7.60;;;18.40;99.90;;;;;;4992885;28;20551;-65
2023/09/16 07:44:07;;;;;;;8.30;7.40;;;18.50;99.90;;;;;;5001880;28;20457;-65
2023/09/16 07:46:34;;;;;;;10.00;7.60;;;18.60;99.90;;;;;;4992891;28;20997;-65
2023/09/16 07:49:02;;;;;;;9.13;7.27;;;18.80;99.90;;;;;;4992705;28;20469;-65
2023/09/16 07:51:29;;;;;;;12.30;7.10;;;19.00;99.90;;;;;;4992761;28;20863;-65
2023/09/16 07:53:55;;;;;;;8.33;7.53;;;19.10;99.90;;;;;;5001654;28;20465;-65
2023/09/16 07:56:22;;;;;;;8.27;6.93;;;19.30;99.90;;;;;;4992694;28;20927;-65
2023/09/16 07:58:49;;;;;;;10.30;8.33;;;19.40;99.90;;;;;;4992711;28;20473;-65
2023/09/16 08:01:16;;;;;;;10.43;7.10;;;19.60;99.90;;;;;;4992427;28;20496;-66
2023/09/16 08:03:43;;;;;;;8.90;7.30;;;19.70;99.90;;;;;;4993625;28;20466;-65
2023/09/16 08:06:12;;;;;;;9.30;8.10;;;19.90;99.90;;;;;;5002352;28;20809;-66
2023/09/16 08:08:39;;;;;;;11.30;7.60;;;20.10;99.90;;;;;;4992747;28;20466;-65
2023/09/16 08:11:06;;;;;;;12.87;8.27;;;20.30;99.90;;;;;;4993326;28;20479;-65
2023/09/16 08:13:33;;;;;;;10.57;8.10;;;20.50;99.90;;;;;;5001681;28;20460;-65
2023/09/16 08:16:00;;;;;;;8.90;7.60;;;20.70;99.90;;;;;;4992286;28;20526;-63
2023/09/16 08:18:26;;;;;;;10.17;8.30;;;20.90;99.90;;;;;;4992200;28;20455;-63
2023/09/16 08:20:53;;;;;;;9.20;8.33;;;21.10;99.90;;;;;;5002217;28;20862;-63
2023/09/16 08:23:21;;;;;;;9.30;8.10;;;21.10;99.90;;;;;;4991622;28;20473;-63
2023/09/16 08:25:48;;;;;;;9.80;7.17;;;21.20;99.90;;;;;;4992297;28;20463;-63
2023/09/16 08:28:15;;;;;;;8.60;7.70;;;21.30;99.90;;;;;;4992047;28;20461;-63
2023/09/16 08:30:41;;;;;;;10.27;6.87;;;21.50;99.90;;;;;;4992225;28;20485;-63
2023/09/16 08:33:09;;;;;;;8.93;6.97;;;21.70;99.90;;;;;;5001697;28;20465;-65
2023/09/16 08:35:35;;;;;;;8.87;7.47;;;21.80;99.90;;;;;;5002232;28;20961;-63
2023/09/16 08:38:02;;;;;;;8.77;7.87;;;21.90;99.90;;;;;;4991793;28;20467;-63
2023/09/16 08:40:32;;;;;;;9.73;6.67;;;22.00;99.90;;;;;;4991763;28;20456;-63
2023/09/16 08:43:12;;;;;;;6.80;6.03;;;22.10;99.90;;;;;;4991388;28;20583;-62
2023/09/16 08:45:49;;;;;;;7.47;5.90;;;22.30;99.90;;;;;;4999259;28;20461;-63
2023/09/16 08:48:22;;;;;;;7.20;6.50;;;22.50;99.90;;;;;;5001955;28;20460;-63
2023/09/16 08:50:51;;;;;;;7.13;6.03;;;22.70;99.90;;;;;;4991746;28;20481;-63
2023/09/16 08:53:20;;;;;;;8.07;6.93;;;22.90;99.90;;;;;;4995514;28;20468;-63
2023/09/16 08:55:52;;;;;;;7.27;5.97;;;23.10;99.90;;;;;;5005505;28;20957;-63
2023/09/16 08:58:20;;;;;;;6.13;5.33;;;23.30;99.90;;;;;;4992526;28;20470;-63
2023/09/16 09:00:47;;;;;;;6.47;5.80;;;23.30;99.90;;;;;;4991598;28;20482;-63
2023/09/16 09:03:13;;;;;;;5.30;4.80;;;23.50;99.90;;;;;;4990839;28;20490;-64
2023/09/16 09:05:42;;;;;;;6.37;5.77;;;23.50;99.90;;;;;;4991536;28;20459;-63
2023/09/16 09:08:10;;;;;;;5.17;4.67;;;23.40;99.90;;;;;;4991431;28;20462;-63
2023/09/16 09:10:37;;;;;;;6.97;6.27;;;23.50;99.90;;;;;;4991700;28;21009;-63
2023/09/16 09:13:07;;;;;;;5.57;4.80;;;23.60;99.90;;;;;;4993640;28;20461;-63
2023/09/16 09:15:38;;;;;;;5.43;4.90;;;23.80;99.90;;;;;;5005452;28;20465;-63
2023/09/16 09:18:06;;;;;;;5.03;4.53;;;24.10;99.90;;;;;;4994477;28;20467;-63
2023/09/16 09:20:34;;;;;;;5.87;4.77;;;24.30;99.90;;;;;;4991243;28;20865;-63
2023/09/16 09:23:02;;;;;;;5.93;5.33;;;24.40;99.90;;;;;;4989915;28;20486;-63
2023/09/16 09:25:31;;;;;;;5.37;4.87;;;24.40;99.90;;;;;;4997360;28;20544;-63
2023/09/16 09:27:58;;;;;;;5.70;4.60;;;24.50;99.90;;;;;;4995669;28;20464;-63
2023/09/16 09:30:27;;;;;;;5.30;4.80;;;24.40;99.90;;;;;;4991250;28;20466;-63
2023/09/16 09:32:56;;;;;;;4.83;4.43;;;24.50;99.90;;;;;;4990623;28;20462;-64
2023/09/16 09:35:23;;;;;;;4.40;4.00;;;24.60;99.90;;;;;;4991076;28;20466;-63
2023/09/16 09:37:54;;;;;;;4.73;4.10;;;24.70;99.90;;;;;;5003229;28;20457;-63
2023/09/16 09:40:21;;;;;;;4.60;4.20;;;24.90;99.90;;;;;;5003754;28;20493;-63
2023/09/16 09:42:49;;;;;;;4.90;4.40;;;25.00;99.90;;;;;;4990410;28;20482;-63
2023/09/16 09:45:17;;;;;;;4.40;4.00;;;25.10;99.90;;;;;;4991246;28;20836;-63
2023/09/16 09:47:48;;;;;;;4.10;3.70;;;25.30;99.90;;;;;;4991060;28;20557;-63
2023/09/16 09:50:17;;;;;;;4.87;4.43;;;25.50;99.90;;;;;;4991084;28;20462;-63
2023/09/16 09:52:47;;;;;;;4.60;4.20;;;25.60;99.90;;;;;;4990926;28;20467;-63
2023/09/16 09:55:15;;;;;;;4.70;4.30;;;25.70;99.90;;;;;;5002282;28;20465;-63
2023/09/16 09:57:45;;;;;;;3.83;3.50;;;25.90;99.90;;;;;;4999200;28;20461;-63
2023/09/16 10:00:14;;;;;;;4.20;3.90;;;25.90;99.90;;;;;;4998493;28;20509;-63
2023/09/16 10:02:43;;;;;;;4.27;3.87;;;26.00;99.90;;;;;;4997304;28;20482;-63
2023/09/16 10:05:14;;;;;;;3.67;3.37;;;26.10;99.90;;;;;;5002575;28;20470;-63
2023/09/16 10:07:41;;;;;;;3.77;3.47;;;26.30;99.90;;;;;;4998808;28;20468;-63
2023/09/16 10:10:13;;;;;;;3.87;3.47;;;26.40;99.90;;;;;;4994634;28;21172;-63
2023/09/16 10:12:40;;;;;;;4.37;4.00;;;26.50;99.90;;;;;;4990479;28;20891;-63
2023/09/16 10:15:08;;;;;;;7.27;4.00;;;26.70;99.90;;;;;;4990962;28;20462;-64
2023/09/16 10:17:35;;;;;;;3.60;3.30;;;26.80;99.90;;;;;;5002289;28;20465;-63
2023/09/16 10:20:03;;;;;;;4.10;3.70;;;26.90;99.90;;;;;;5000091;28;20458;-63
2023/09/16 10:22:31;;;;;;;4.30;3.40;;;26.90;99.90;;;;;;4998655;28;20497;-63
2023/09/16 10:24:58;;;;;;;3.80;3.50;;;27.00;99.90;;;;;;4996179;28;20462;-64
2023/09/16 10:27:29;;;;;;;3.47;3.17;;;27.10;99.90;;;;;;5005519;28;20465;-63
2023/09/16 10:29:57;;;;;;;3.30;3.10;;;27.10;99.90;;;;;;4996118;28;20459;-63
2023/09/16 10:32:24;;;;;;;4.87;4.37;;;27.20;99.90;;;;;;4989856;28;20485;-63
2023/09/16 10:34:53;;;;;;;4.00;3.60;;;27.30;99.90;;;;;;4993594;28;20458;-63
2023/09/16 10:37:21;;;;;;;3.97;3.63;;;27.40;99.90;;;;;;4993988;28;20847;-64
2023/09/16 10:39:50;;;;;;;3.73;3.43;;;27.50;99.90;;;;;;5002962;28;20987;-64
2023/09/16 10:42:19;;;;;;;3.20;2.93;;;27.50;99.90;;;;;;4995917;28;20494;-63
2023/09/16 10:44:47;;;;;;;4.10;3.70;;;27.40;99.90;;;;;;4993995;28;20466;-63
2023/09/16 10:47:15;;;;;;;3.40;2.77;;;27.50;99.90;;;;;;5006058;28;20828;-63
2023/09/16 10:49:41;;;;;;;3.50;3.20;;;27.60;99.90;;;;;;4993965;28;20959;-63
2023/09/16 10:52:11;;;;;;;3.57;3.27;;;27.70;99.90;;;;;;4993812;28;20478;-64
2023/09/16 10:54:43;;;;;;;3.10;2.80;;;27.90;99.90;;;;;;5004668;28;20554;-64
2023/09/16 10:57:17;;;;;;;3.10;2.87;;;28.00;99.90;;;;;;5005700;28;20480;-64
2023/09/16 10:59:47;;;;;;;3.70;2.87;;;28.10;99.90;;;;;;5004673;28;20462;-64
2023/09/16 11:02:24;;;;;;;2.50;2.30;;;28.20;99.90;;;;;;5000523;28;20573;-62
2023/09/16 11:04:51;;;;;;;2.73;2.53;;;28.30;99.90;;;;;;4989907;28;20450;-63
2023/09/16 11:07:20;;;;;;;2.90;2.60;;;28.30;99.90;;;;;;5001734;28;20465;-63
2023/09/16 11:09:48;;;;;;;3.13;2.53;;;28.30;99.90;;;;;;4990028;28;20985;-63
2023/09/16 11:12:18;;;;;;;2.80;2.60;;;28.40;99.90;;;;;;4989554;28;20478;-63
2023/09/16 11:14:45;;;;;;;2.27;2.07;;;28.40;99.90;;;;;;4990153;28;20469;-63
2023/09/16 11:17:14;;;;;;;2.63;2.43;;;28.40;99.90;;;;;;5001842;28;20466;-63
2023/09/16 11:19:42;;;;;;;2.57;2.13;;;28.40;99.90;;;;;;4989931;28;20975;-63
2023/09/16 11:22:09;;;;;;;2.60;2.30;;;28.40;99.90;;;;;;5001621;28;21050;-63
2023/09/16 11:24:37;;;;;;;2.50;2.30;;;28.50;99.90;;;;;;4996510;28;20838;-63
2023/09/16 11:27:04;;;;;;;2.57;2.37;;;28.70;99.90;;;;;;4994517;28;20465;-63
2023/09/16 11:29:33;;;;;;;2.60;2.40;;;28.80;99.90;;;;;;4995835;28;20468;-63
2023/09/16 11:32:01;;;;;;;2.40;2.20;;;28.90;99.90;;;;;;4994753;28;20994;-64
2023/09/16 11:34:29;;;;;;;2.20;2.00;;;29.00;99.90;;;;;;4989033;28;20470;-63
2023/09/16 11:36:58;;;;;;;2.20;2.00;;;29.00;99.90;;;;;;5003567;28;20470;-64
2023/09/16 11:39:35;;;;;;;2.73;2.53;;;29.10;99.90;;;;;;4999748;28;20473;-63
2023/09/16 11:42:01;;;;;;;2.63;2.03;;;29.20;99.90;;;;;;5001486;28;20585;-63
2023/09/16 11:44:29;;;;;;;2.47;2.27;;;29.40;99.90;;;;;;4994317;28;20820;-63
2023/09/16 11:46:58;;;;;;;2.03;1.93;;;29.40;99.90;;;;;;5004670;28;20461;-63
2023/09/16 11:49:25;;;;;;;2.43;2.23;;;29.30;99.90;;;;;;4991304;28;20474;-64
2023/09/16 11:51:53;;;;;;;2.20;2.00;;;29.30;99.90;;;;;;4989078;28;20892;-63
2023/09/16 11:54:20;;;;;;;2.27;2.07;;;29.40;99.90;;;;;;4988526;28;20597;-64
2023/09/16 11:56:46;;;;;;;2.07;1.90;;;29.40;99.90;;;;;;4989483;28;20476;-64
2023/09/16 11:59:14;;;;;;;2.30;2.10;;;29.50;99.90;;;;;;5000907;28;20557;-64
2023/09/16 12:01:42;;;;;;;2.23;2.03;;;29.60;99.90;;;;;;4988916;28;20872;-64
2023/09/16 12:04:11;;;;;;;2.37;2.17;;;29.60;99.90;;;;;;4999811;28;20479;-63
2023/09/16 12:06:39;;;;;;;2.30;2.10;;;29.70;99.90;;;;;;4989406;28;20463;-63
2023/09/16 12:09:08;;;;;;;2.33;2.13;;;29.90;99.90;;;;;;4988766;28;20467;-63
2023/09/16 12:11:37;;;;;;;2.57;2.37;;;30.00;99.90;;;;;;4987707;28;20928;-64
2023/09/16 12:14:06;;;;;;;2.00;1.90;;;30.00;99.90;;;;;;4988166;28;20565;-64
2023/09/16 12:16:33;;;;;;;2.23;2.03;;;30.00;99.90;;;;;;4988624;28;20470;-64
2023/09/16 12:19:00;;;;;;;2.27;2.07;;;29.90;99.90;;;;;;4991038;28;20472;-63
2023/09/16 12:21:28;;;;;;;2.10;2.00;;;29.90;99.90;;;;;;4998827;28;20486;-64
2023/09/16 12:23:55;;;;;;;2.20;2.00;;;29.90;99.90;;;;;;5000840;28;20486;-63
2023/09/16 12:26:22;;;;;;;1.90;1.80;;;29.90;99.90;;;;;;4988504;28;21095;-63
2023/09/16 12:28:49;;;;;;;2.67;2.47;;;29.90;99.90;;;;;;5001359;28;20501;-63
2023/09/16 12:31:21;;;;;;;1.90;1.80;;;30.00;99.90;;;;;;4988328;28;20482;-64
2023/09/16 12:33:53;;;;;;;2.30;2.10;;;30.10;99.90;;;;;;4987984;28;20462;-64
2023/09/16 12:36:23;;;;;;;2.27;2.07;;;30.10;99.90;;;;;;4988396;28;20517;-64
2023/09/16 12:38:53;;;;;;;3.10;2.47;;;30.20;99.90;;;;;;4988681;28;20466;-64
2023/09/16 12:41:21;;;;;;;2.40;2.20;;;30.30;99.90;;;;;;4988045;28;20495;-64
2023/09/16 12:43:49;;;;;;;2.67;2.10;;;30.40;99.90;;;;;;4987636;28;20481;-64
2023/09/16 12:46:20;;;;;;;1.93;1.83;;;30.40;99.90;;;;;;5000473;28;20928;-64
2023/09/16 12:48:48;;;;;;;2.40;2.20;;;30.30;99.90;;;;;;4991158;28;20467;-63
2023/09/16 12:51:15;;;;;;;2.80;2.60;;;30.30;99.90;;;;;;5000256;28;20481;-64
2023/09/16 12:53:42;;;;;;;2.50;2.30;;;30.10;99.90;;;;;;4987955;28;20454;-64
2023/09/16 12:56:16;;;;;;;2.30;2.10;;;30.00;99.90;;;;;;4999505;28;20462;-64
2023/09/16 12:58:43;;;;;;;2.40;2.20;;;30.00;99.90;;;;;;4990866;28;20593;-64
2023/09/16 13:01:09;;;;;;;2.20;2.07;;;30.00;99.90;;;;;;4991834;28;20482;-64
2023/09/16 13:03:38;;;;;;;2.50;2.30;;;30.00;99.90;;;;;;4990540;28;21006;-64
2023/09/16 13:06:06;;;;;;;2.50;2.30;;;30.00;99.90;;;;;;4990780;28;20974;-63
2023/09/16 13:08:34;;;;;;;2.33;2.13;;;29.90;99.90;;;;;;4991017;28;20463;-64
2023/09/16 13:11:01;;;;;;;2.80;2.60;;;29.90;99.90;;;;;;4990896;28;20521;-64
2023/09/16 13:13:30;;;;;;;2.50;2.30;;;29.90;99.90;;;;;;4990332;28;20498;-64
2023/09/16 13:15:58;;;;;;;3.03;2.73;;;29.90;99.90;;;;;;4990836;28;20466;-64
2023/09/16 13:18:26;;;;;;;2.60;2.40;;;30.00;99.90;;;;;;4996203;28;21136;-64
2023/09/16 13:20:54;;;;;;;2.70;2.50;;;30.10;99.90;;;;;;4999386;28;20493;-64
2023/09/16 13:23:25;;;;;;;2.47;2.27;;;30.20;99.90;;;;;;5001899;28;20486;-64
2023/09/16 13:25:52;;;;;;;2.40;2.20;;;30.10;99.90;;;;;;5002738;28;20470;-64
2023/09/16 13:28:21;;;;;;;2.60;2.40;;;30.10;99.90;;;;;;4990963;28;20836;-64
2023/09/16 13:30:53;;;;;;;2.63;2.43;;;30.10;99.90;;;;;;5002961;28;20489;-64
2023/09/16 13:33:21;;;;;;;2.30;2.10;;;29.90;99.90;;;;;;5007166;28;20462;-64
2023/09/16 13:35:49;;;;;;;2.27;2.07;;;29.70;99.90;;;;;;5003218;28;20529;-64
2023/09/16 13:38:16;;;;;;;2.30;2.10;;;29.70;99.90;;;;;;4990715;28;20489;-64
2023/09/16 13:40:49;;;;;;;2.47;2.27;;;29.50;99.90;;;;;;4990633;28;20514;-64
2023/09/16 13:43:16;;;;;;;2.40;2.20;;;29.40;99.90;;;;;;5002493;28;20492;-64
2023/09/16 13:45:43;;;;;;;2.30;2.10;;;29.20;99.90;;;;;;4999344;28;20465;-64
2023/09/16 13:48:13;;;;;;;3.00;2.53;;;29.20;99.90;;;;;;5004268;28;20470;-64
2023/09/16 13:50:42;;;;;;;2.40;2.20;;;29.10;99.90;;;;;;5004190;28;20857;-64
2023/09/16 13:53:09;;;;;;;2.70;2.50;;;29.10;99.90;;;;;;4989933;28;20469;-64
2023/09/16 13:55:36;;;;;;;2.47;2.27;;;29.00;99.90;;;;;;5004006;28;21000;-64
2023/09/16 13:58:04;;;;;;;2.57;2.37;;;28.90;99.90;;;;;;5001032;28;20473;-64
2023/09/16 14:00:30;;;;;;;2.70;2.50;;;28.70;99.90;;;;;;4993247;28;21376;-64
2023/09/16 14:02:57;;;;;;;3.40;2.63;;;28.60;99.90;;;;;;4989851;28;20467;-64
2023/09/16 14:05:26;;;;;;;3.30;1.90;;;28.40;99.90;;;;;;5003872;28;20523;-64
2023/09/16 14:07:54;;;;;;;2.67;2.47;;;28.50;99.90;;;;;;5004319;28;20466;-64
2023/09/16 14:10:23;;;;;;;2.50;2.30;;;28.40;99.90;;;;;;5004898;28;20476;-64
2023/09/16 14:12:50;;;;;;;2.20;2.00;;;28.50;99.90;;;;;;5001619;28;20831;-64
2023/09/16 14:15:17;;;;;;;1.87;1.77;;;28.60;99.90;;;;;;4998382;28;20465;-63
2023/09/16 14:17:44;;;;;;;1.80;1.70;;;28.50;99.90;;;;;;5009595;28;20511;-64
2023/09/16 14:20:11;;;;;;;2.57;2.37;;;28.50;99.90;;;;;;5005572;28;21001;-63
2023/09/16 14:22:39;;;;;;;2.30;2.10;;;28.30;99.90;;;;;;5009741;28;20539;-63
2023/09/16 14:25:07;;;;;;;2.70;2.30;;;28.10;99.90;;;;;;4996566;28;20572;-64
2023/09/16 14:27:34;;;;;;;2.50;2.30;;;27.90;99.90;;;;;;5004548;28;20472;-64
2023/09/16 14:30:01;;;;;;;2.47;2.27;;;27.70;99.90;;;;;;4993660;28;20463;-63
2023/09/16 14:32:29;;;;;;;2.10;1.90;;;27.50;99.90;;;;;;4992965;28;20576;-64
2023/09/16 14:34:56;;;;;;;2.73;2.53;;;27.40;99.90;;;;;;4993858;28;20466;-63
2023/09/16 14:37:23;;;;;;;2.50;2.30;;;27.30;99.90;;;;;;4994117;28;20889;-64
2023/09/16 14:39:52;;;;;;;2.40;2.20;;;27.20;99.90;;;;;;4994385;28;20566;-64
2023/09/16 14:42:18;;;;;;;2.10;1.90;;;27.30;99.90;;;;;;5006447;28;20484;-63
2023/09/16 14:44:46;;;;;;;2.60;2.17;;;27.50;99.90;;;;;;5009559;28;20496;-63
2023/09/16 14:47:13;;;;;;;2.10;1.90;;;27.80;99.90;;;;;;5004288;28;20472;-64
2023/09/16 14:49:40;;;;;;;2.30;2.10;;;28.00;99.90;;;;;;5010774;28;20822;-63
2023/09/16 14:52:07;;;;;;;2.47;2.27;;;28.30;99.90;;;;;;5004866;28;20481;-64
2023/09/16 14:54:34;;;;;;;2.30;2.10;;;28.50;99.90;;;;;;4996434;28;20521;-63
2023/09/16 14:57:02;;;;;;;2.43;2.00;;;28.60;99.90;;;;;;4993983;28;20481;-64
2023/09/16 14:59:29;;;;;;;2.10;1.90;;;28.70;99.90;;;;;;4999842;28;20476;-64
2023/09/16 15:01:56;;;;;;;2.00;1.80;;;28.70;99.90;;;;;;5001753;28;20512;-64
2023/09/16 15:04:23;;;;;;;2.10;1.90;;;28.80;99.90;;;;;;4993175;28;20494;-64
2023/09/16 15:06:50;;;;;;;2.07;1.90;;;28.80;99.90;;;;;;5008395;28;20485;-64
2023/09/16 15:09:16;;;;;;;2.20;2.00;;;28.70;99.90;;;;;;5003172;28;20457;-64
2023/09/16 15:11:43;;;;;;;2.17;1.97;;;28.60;99.90;;;;;;5010261;28;20896;-64
2023/09/16 15:14:12;;;;;;;2.30;2.10;;;28.60;99.90;;;;;;5004686;28;20493;-64
2023/09/16 15:16:39;;;;;;;2.57;2.37;;;28.60;99.90;;;;;;4996211;28;20886;-64
2023/09/16 15:19:06;;;;;;;2.73;2.40;;;28.60;99.90;;;;;;4993396;28;20915;-64
2023/09/16 15:21:33;;;;;;;1.70;1.60;;;28.70;99.90;;;;;;5008005;28;20861;-64
2023/09/16 15:24:00;;;;;;;2.43;2.10;;;28.70;99.90;;;;;;4994686;28;20482;-64
2023/09/16 15:26:27;;;;;;;1.80;1.70;;;28.60;99.90;;;;;;5006176;28;20474;-64
2023/09/16 15:28:55;;;;;;;1.90;1.80;;;28.60;99.90;;;;;;4993128;28;20955;-64
2023/09/16 15:31:23;;;;;;;2.20;1.83;;;28.60;99.90;;;;;;4993016;28;20560;-64
2023/09/16 15:33:50;;;;;;;2.80;2.13;;;28.60;99.90;;;;;;4993248;28;20466;-64
2023/09/16 15:36:16;;;;;;;2.37;2.17;;;28.60;99.90;;;;;;5007300;28;20599;-64
2023/09/16 15:38:43;;;;;;;2.30;2.10;;;28.50;99.90;;;;;;4992883;28;20981;-64
2023/09/16 15:41:10;;;;;;;2.30;2.10;;;28.40;99.90;;;;;;5003437;28;20532;-64
2023/09/16 15:43:36;;;;;;;2.40;1.90;;;28.20;99.90;;;;;;5004018;28;20483;-64
2023/09/16 15:46:07;;;;;;;2.53;2.33;;;28.00;99.90;;;;;;5010661;28;20461;-64
2023/09/16 15:48:35;;;;;;;2.27;1.97;;;28.00;99.90;;;;;;5011795;28;20465;-64
2023/09/16 15:51:02;;;;;;;1.97;1.77;;;27.90;99.90;;;;;;5011536;28;20486;-64
2023/09/16 15:53:29;;;;;;;2.40;2.17;;;27.60;99.90;;;;;;5002910;28;20465;-64
2023/09/16 15:55:56;;;;;;;2.23;2.03;;;27.50;99.90;;;;;;5010605;28;20465;-64
2023/09/16 15:58:24;;;;;;;2.03;1.87;;;27.50;99.90;;;;;;4998178;28;20463;-63
2023/09/16 16:00:52;;;;;;;2.17;1.97;;;27.50;99.90;;;;;;5000732;28;20564;-63
2023/09/16 16:03:20;;;;;;;2.40;2.20;;;27.40;99.90;;;;;;5010497;28;20475;-63
2023/09/16 16:05:49;;;;;;;1.87;1.77;;;27.40;99.90;;;;;;5002891;28;20466;-63
2023/09/16 16:08:20;;;;;;;2.47;2.20;;;27.20;99.90;;;;;;4992508;28;20898;-63
2023/09/16 16:10:48;;;;;;;2.37;2.17;;;27.10;99.90;;;;;;5008289;28;20492;-64
2023/09/16 16:13:15;;;;;;;2.40;2.03;;;26.90;99.90;;;;;;4998527;28;20812;-63
2023/09/16 16:15:42;;;;;;;2.40;2.10;;;26.80;99.90;;;;;;4992446;28;20466;-64
2023/09/16 16:18:09;;;;;;;2.93;2.60;;;26.80;99.90;;;;;;5011210;28;20465;-63